createdAt,value
2022-09-06T00:02:45.282Z,94435.06
2022-09-06T00:07:47.173Z,94445.50
2022-09-06T00:12:49.218Z,94433.84
2022-09-06T00:17:51.692Z,94432.22
2022-09-06T00:22:58.399Z,94429.91
2022-09-06T00:28:02.686Z,94442.97
2022-09-06T00:33:04.577Z,94439.41
2022-09-06T00:38:06.414Z,94433.50
2022-09-06T00:43:08.245Z,94436.56
2022-09-06T00:48:10.141Z,94432.25
2022-09-06T00:53:12.097Z,94433.38
2022-09-06T00:58:13.910Z,94419.41
2022-09-06T01:03:15.915Z,94422.09
2022-09-06T01:08:24.761Z,94424.00
2022-09-06T01:13:59.307Z,94408.44
2022-09-06T01:19:25.657Z,94420.03
2022-09-06T01:24:45.737Z,94409.94
2022-09-06T01:30:02.448Z,94411.38
2022-09-06T01:35:08.901Z,94404.47
2022-09-06T01:40:11.154Z,94404.44
2022-09-06T01:45:16.545Z,94408.19
2022-09-06T01:50:44.912Z,94397.78
2022-09-06T01:56:08.933Z,94393.47
2022-09-06T02:01:22.347Z,94401.97
2022-09-06T02:06:28.503Z,94416.16
2022-09-06T02:11:35.908Z,94418.88
2022-09-06T02:16:39.978Z,94419.16
2022-09-06T02:21:45.401Z,94414.06
2022-09-06T02:26:47.894Z,94411.69
2022-09-06T02:31:53.600Z,94414.69
2022-09-06T02:36:55.679Z,94414.16
2022-09-06T02:41:58.130Z,94404.09
2022-09-06T02:47:01.401Z,94410.00
2022-09-06T02:52:03.483Z,94419.16
2022-09-06T02:57:05.320Z,94410.97
2022-09-06T03:02:08.045Z,94410.81
2022-09-06T03:07:10.021Z,94409.25
2022-09-06T03:12:11.878Z,94404.91
2022-09-06T03:17:13.716Z,94409.47
2022-09-06T03:22:15.581Z,94405.25
2022-09-06T03:27:17.583Z,94412.91
2022-09-06T03:32:19.462Z,94415.94
2022-09-06T03:37:21.272Z,94402.06
2022-09-06T03:42:23.481Z,94410.50
2022-09-06T03:47:25.412Z,94410.38
2022-09-06T03:52:27.196Z,94410.22
2022-09-06T03:57:29.349Z,94425.13
2022-09-06T04:02:31.195Z,94424.75
2022-09-06T04:07:33.011Z,94425.06
2022-09-06T04:12:35.065Z,94422.09
2022-09-06T04:17:37.039Z,94428.91
2022-09-06T04:22:39.052Z,94426.06
2022-09-06T04:27:40.865Z,94426.09
2022-09-06T04:32:42.759Z,94431.03
2022-09-06T04:37:44.596Z,94435.25
2022-09-06T04:42:46.581Z,94429.19
2022-09-06T04:47:48.480Z,94430.34
2022-09-06T04:52:50.411Z,94433.28
2022-09-06T04:57:52.926Z,94442.56
2022-09-06T05:02:54.825Z,94444.84
2022-09-06T05:07:57.225Z,94441.66
2022-09-06T05:12:59.201Z,94445.91
2022-09-06T05:18:04.991Z,94446.34
2022-09-06T05:23:06.969Z,94455.63
2022-09-06T05:28:09.051Z,94454.06
2022-09-06T05:33:14.937Z,94454.19
2022-09-06T05:38:17.130Z,94462.09
2022-09-06T05:43:19.277Z,94466.28
2022-09-06T05:48:21.667Z,94473.25
2022-09-06T05:53:23.875Z,94475.50
2022-09-06T05:58:25.832Z,94471.56
2022-09-06T06:03:27.888Z,94479.50
2022-09-06T06:08:29.949Z,94484.59
2022-09-06T06:13:35.200Z,94490.44
2022-09-06T06:18:37.432Z,94497.41
2022-09-06T06:23:40.684Z,94499.06
2022-09-06T06:28:42.996Z,94504.19
2022-09-06T06:33:45.062Z,94503.31
2022-09-06T06:38:47.938Z,94501.75
2022-09-06T06:43:57.924Z,94507.75
2022-09-06T06:49:00.542Z,94503.19
2022-09-06T06:54:02.734Z,94508.66
2022-09-06T06:59:06.633Z,94513.44
2022-09-06T07:04:10.766Z,94521.28
2022-09-06T07:09:12.827Z,94521.38
2022-09-06T07:14:16.157Z,94519.09
2022-09-06T07:24:39.864Z,94515.09
2022-09-06T07:29:41.705Z,94516.41
2022-09-06T07:34:43.570Z,94522.44
2022-09-06T07:39:45.389Z,94520.38
2022-09-06T07:44:47.170Z,94513.00
2022-09-06T07:55:11.112Z,94516.94
2022-09-06T08:00:13.148Z,94525.13
2022-09-06T08:10:37.071Z,94522.47
2022-09-06T08:15:41.608Z,94514.19
2022-09-06T08:20:43.787Z,94521.53
2022-09-06T08:25:45.611Z,94520.31
2022-09-06T08:30:47.399Z,94521.38
2022-09-06T08:35:56.696Z,94522.44
2022-09-06T08:41:11.703Z,94524.69
2022-09-06T08:46:13.567Z,94529.25
2022-09-06T08:51:38.604Z,94519.44
2022-09-06T08:56:52.966Z,94517.56
2022-09-06T09:02:01.958Z,94519.38
2022-09-06T09:07:07.783Z,94521.94
2022-09-06T09:12:12.952Z,94516.88
2022-09-06T09:17:22.407Z,94513.63
2022-09-06T09:22:25.427Z,94514.75
2022-09-06T09:27:28.752Z,94517.56
2022-09-06T09:32:33.762Z,94508.22
2022-09-06T09:37:54.673Z,94508.06
2022-09-06T09:43:10.830Z,94505.44
2022-09-06T09:48:27.450Z,94510.88
2022-09-06T09:53:29.661Z,94497.88
2022-09-06T09:58:36.106Z,94489.88
2022-09-06T10:09:18.505Z,94475.47
2022-09-06T10:14:41.241Z,94470.66
2022-09-06T10:19:47.389Z,94471.44
2022-09-06T10:25:10.606Z,94468.69
2022-09-06T10:30:14.751Z,94465.66
2022-09-06T10:35:27.061Z,94443.06
2022-09-06T10:40:48.266Z,94440.88
2022-09-06T10:46:15.410Z,94438.63
2022-09-06T10:51:36.785Z,94435.31
2022-09-06T10:56:44.401Z,94422.66
2022-09-06T11:02:25.277Z,94434.13
2022-09-06T11:07:31.671Z,94415.59
2022-09-06T11:12:51.970Z,94414.56
2022-09-06T11:18:18.610Z,94410.84
2022-09-06T11:23:48.500Z,94410.63
2022-09-06T11:28:55.807Z,94397.72
2022-09-06T11:34:02.352Z,94394.91
2022-09-06T11:39:07.022Z,94400.06
2022-09-06T11:44:10.112Z,94402.25
2022-09-06T11:49:32.027Z,94403.00
2022-09-06T11:54:43.510Z,94402.03
2022-09-06T11:59:49.913Z,94385.69
2022-09-06T12:05:07.114Z,94388.91
2022-09-06T12:10:29.126Z,94383.47
2022-09-06T12:15:40.551Z,94377.25
2022-09-06T12:20:48.671Z,94373.31
2022-09-06T12:25:54.845Z,94373.84
2022-09-06T12:30:56.702Z,94362.44
2022-09-06T12:36:19.760Z,94355.66
2022-09-06T12:41:22.640Z,94359.28
2022-09-06T12:46:25.704Z,94341.34
2022-09-06T12:51:27.799Z,94343.03
2022-09-06T12:56:31.122Z,94339.63
2022-09-06T13:01:34.920Z,94325.34
2022-09-06T13:06:42.576Z,94310.78
2022-09-06T13:11:46.568Z,94319.88
2022-09-06T13:16:50.846Z,94320.88
2022-09-06T13:21:52.730Z,94301.81
2022-09-06T13:26:54.766Z,94303.00
2022-09-06T13:31:58.431Z,94294.94
2022-09-06T13:37:09.321Z,94284.84
2022-09-06T13:42:24.131Z,94266.16
2022-09-06T13:47:29.785Z,94281.56
2022-09-06T13:52:32.222Z,94269.59
2022-09-06T13:57:34.197Z,94271.00
2022-09-06T14:02:36.214Z,94252.31
2022-09-06T14:07:38.195Z,94250.06
2022-09-06T14:12:40.007Z,94239.28
2022-09-06T14:17:42.059Z,94235.34
2022-09-06T14:22:43.959Z,94223.53
2022-09-06T14:27:48.691Z,94226.72
2022-09-06T14:32:51.053Z,94219.13
2022-09-06T14:37:52.956Z,94210.28
2022-09-06T14:42:54.840Z,94200.53
2022-09-06T14:47:57.138Z,94198.53
2022-09-06T14:52:59.456Z,94181.88
2022-09-06T14:58:01.431Z,94176.97
2022-09-06T15:03:03.319Z,94172.69
2022-09-06T15:08:05.507Z,94174.72
2022-09-06T15:13:08.178Z,94167.81
2022-09-06T15:18:10.077Z,94166.31
2022-09-06T15:23:24.921Z,94170.25
2022-09-06T15:28:27.719Z,94163.88
2022-09-06T15:33:33.626Z,94162.25
2022-09-06T15:38:38.680Z,94168.03
2022-09-06T15:43:42.764Z,94153.41
2022-09-06T15:48:46.567Z,94154.78
2022-09-06T15:53:48.515Z,94160.44
2022-09-06T15:58:50.398Z,94151.75
2022-09-06T16:03:54.502Z,94141.63
2022-09-06T16:08:59.323Z,94145.16
2022-09-06T16:14:01.157Z,94154.47
2022-09-06T16:19:03.306Z,94157.69
2022-09-06T16:24:08.016Z,94169.13
2022-09-06T16:29:14.294Z,94162.63
2022-09-06T16:34:16.628Z,94157.66
2022-09-06T16:39:18.574Z,94160.06
2022-09-06T16:44:20.457Z,94151.44
2022-09-06T16:49:23.665Z,94149.66
2022-09-06T16:54:25.584Z,94160.44
2022-09-06T16:59:27.528Z,94152.06
2022-09-06T17:04:29.329Z,94152.56
2022-09-06T17:09:34.546Z,94158.97
2022-09-06T17:14:37.075Z,94161.19
2022-09-06T17:19:41.437Z,94162.56
2022-09-06T17:24:44.862Z,94164.88
2022-09-06T17:29:46.613Z,94165.72
2022-09-06T17:34:48.343Z,94172.78
2022-09-06T17:39:50.270Z,94158.44
2022-09-06T17:44:52.189Z,94161.47
2022-09-06T17:49:54.704Z,94160.66
2022-09-06T17:54:56.794Z,94164.31
2022-09-06T17:59:58.678Z,94163.38
2022-09-06T18:05:00.551Z,94170.97
2022-09-06T18:10:02.443Z,94166.94
2022-09-06T18:15:04.791Z,94166.41
2022-09-06T18:20:07.467Z,94156.53
2022-09-06T18:25:09.646Z,94163.59
2022-09-06T18:30:14.860Z,94173.03
2022-09-06T18:35:17.029Z,94172.38
2022-09-06T18:40:18.831Z,94166.31
2022-09-06T18:45:20.911Z,94166.53
2022-09-06T18:50:22.912Z,94185.34
2022-09-06T18:55:24.863Z,94186.22
2022-09-06T19:00:26.651Z,94180.09
2022-09-06T19:05:28.587Z,94180.25
2022-09-06T19:10:30.775Z,94188.28
2022-09-06T19:15:32.719Z,94198.53
2022-09-06T19:20:34.657Z,94203.56
2022-09-06T19:25:37.428Z,94203.63
2022-09-06T19:30:39.266Z,94211.13
2022-09-06T19:35:55.924Z,94222.06
2022-09-06T19:41:11.004Z,94229.06
2022-09-06T19:46:15.204Z,94228.38
2022-09-06T19:51:20.224Z,94241.75
2022-09-06T19:56:25.381Z,94248.03
2022-09-06T20:01:29.599Z,94248.81
2022-09-06T20:06:31.642Z,94244.69
2022-09-06T20:11:35.166Z,94244.38
2022-09-06T20:16:41.418Z,94259.16
2022-09-06T20:21:43.994Z,94269.38
2022-09-06T20:26:45.829Z,94272.56
2022-09-06T20:31:47.905Z,94271.06
2022-09-06T20:36:49.804Z,94282.00
2022-09-06T20:41:51.734Z,94285.97
2022-09-06T20:46:53.660Z,94275.09
2022-09-06T20:51:55.534Z,94277.50
2022-09-06T20:56:59.423Z,94283.78
2022-09-06T21:02:01.700Z,94285.75
2022-09-06T21:07:03.661Z,94283.13
2022-09-06T21:12:05.734Z,94285.47
2022-09-06T21:17:07.549Z,94287.81
2022-09-06T21:22:09.927Z,94281.63
2022-09-06T21:27:12.198Z,94273.91
2022-09-06T21:32:14.080Z,94278.94
2022-09-06T21:37:15.962Z,94270.84
2022-09-06T21:42:18.654Z,94270.50
2022-09-06T21:47:20.523Z,94267.88
2022-09-06T21:52:23.857Z,94266.78
2022-09-06T21:57:25.815Z,94263.34
2022-09-06T22:02:27.907Z,94269.97
2022-09-06T22:07:29.830Z,94264.19
2022-09-06T22:12:31.701Z,94264.97
2022-09-06T22:17:33.632Z,94274.28
2022-09-06T22:22:36.126Z,94287.13
2022-09-06T22:27:38.034Z,94280.53
2022-09-06T22:32:40.096Z,94273.56
2022-09-06T22:37:41.925Z,94270.88
2022-09-06T22:42:43.690Z,94273.59
2022-09-06T22:47:46.134Z,94270.47
2022-09-06T22:52:48.081Z,94278.22
2022-09-06T22:57:50.469Z,94274.31
2022-09-06T23:02:52.458Z,94265.44
2022-09-06T23:07:54.416Z,94271.66
2022-09-06T23:12:57.016Z,94268.94
2022-09-06T23:17:58.783Z,94261.16
2022-09-06T23:23:00.708Z,94258.09
2022-09-06T23:28:02.635Z,94260.41
2022-09-06T23:33:04.934Z,94273.56
2022-09-06T23:38:06.914Z,94268.53
2022-09-06T23:43:09.053Z,94272.03
2022-09-06T23:48:10.913Z,94265.03
2022-09-06T23:53:14.041Z,94263.50
2022-09-06T23:58:15.940Z,94261.16
